Terminal Aerodrome Forecast
Issued by NWS Cleveland, OH

Home | Current Version | Previous Version | Graphics & Text | Print | Product List | Glossary Off
Versions: 1 2 3 4 5 6 7 8 9 10 11 12 13 14 15 16 17 18 19 20 21 22 23 24 25 26

137
FTUS41 KCLE 281854 AAE
TAFMFD
TAF AMD
KMFD 281854Z 2819/2918 21010KT P6SM SCT015 BKN035
     FM290000 22008KT P6SM VCTS SCT025CB BKN040
      TEMPO 2901/2903 VRB20G35KT 3SM TSRA OVC015CB
     FM290500 26008KT P6SM SCT025 BKN080
     FM291500 25011KT P6SM FEW035 SCT150=

USA.gov is the U.S. government's official web portal to all federal, state and local government web resources and services.